sensor_id;sensor_type;location;lat;lon;timestamp;P1;durP1;ratioP1;P2;durP2;ratioP2
51618;SDS011;38518;53.164;5.430;2023-09-19T00:00:42;11.05;;;2.90;;
51618;SDS011;38518;53.164;5.430;2023-09-19T00:03:09;8.00;;;2.90;;
51618;SDS011;38518;53.164;5.430;2023-09-19T00:05:35;10.57;;;2.90;;
51618;SDS011;38518;53.164;5.430;2023-09-19T00:08:03;11.60;;;3.25;;
51618;SDS011;38518;53.164;5.430;2023-09-19T00:10:30;11.55;;;3.05;;
51618;SDS011;38518;53.164;5.430;2023-09-19T00:12:56;12.02;;;3.15;;
51618;SDS011;38518;53.164;5.430;2023-09-19T00:15:30;9.32;;;2.50;;
51618;SDS011;38518;53.164;5.430;2023-09-19T00:18:03;11.60;;;2.85;;
51618;SDS011;38518;53.164;5.430;2023-09-19T00:20:32;8.98;;;2.58;;
51618;SDS011;38518;53.164;5.430;2023-09-19T00:23:00;10.00;;;2.40;;
51618;SDS011;38518;53.164;5.430;2023-09-19T00:25:33;11.43;;;2.75;;
51618;SDS011;38518;53.164;5.430;2023-09-19T00:28:03;10.32;;;2.78;;
51618;SDS011;38518;53.164;5.430;2023-09-19T00:30:31;7.05;;;2.70;;
51618;SDS011;38518;53.164;5.430;2023-09-19T00:32:58;11.07;;;2.95;;
51618;SDS011;38518;53.164;5.430;2023-09-19T00:35:23;9.30;;;2.60;;
51618;SDS011;38518;53.164;5.430;2023-09-19T00:37:49;14.43;;;3.15;;
51618;SDS011;38518;53.164;5.430;2023-09-19T00:40:16;8.48;;;2.70;;
51618;SDS011;38518;53.164;5.430;2023-09-19T00:42:44;11.40;;;3.30;;
51618;SDS011;38518;53.164;5.430;2023-09-19T00:45:12;8.35;;;2.63;;
51618;SDS011;38518;53.164;5.430;2023-09-19T00:47:39;9.02;;;2.42;;
51618;SDS011;38518;53.164;5.430;2023-09-19T00:50:08;10.80;;;3.33;;
51618;SDS011;38518;53.164;5.430;2023-09-19T00:52:36;11.23;;;2.95;;
51618;SDS011;38518;53.164;5.430;2023-09-19T00:55:09;10.18;;;3.08;;
51618;SDS011;38518;53.164;5.430;2023-09-19T00:57:36;9.50;;;3.00;;
51618;SDS011;38518;53.164;5.430;2023-09-19T01:00:03;9.57;;;3.30;;
51618;SDS011;38518;53.164;5.430;2023-09-19T01:02:32;10.13;;;3.08;;
51618;SDS011;38518;53.164;5.430;2023-09-19T01:04:58;9.93;;;2.92;;
51618;SDS011;38518;53.164;5.430;2023-09-19T01:07:29;9.00;;;2.75;;
51618;SDS011;38518;53.164;5.430;2023-09-19T01:09:57;10.23;;;2.90;;
51618;SDS011;38518;53.164;5.430;2023-09-19T01:12:45;8.68;;;2.90;;
51618;SDS011;38518;53.164;5.430;2023-09-19T01:18:02;13.25;;;3.10;;
51618;SDS011;38518;53.164;5.430;2023-09-19T01:28:55;8.20;;;2.60;;
51618;SDS011;38518;53.164;5.430;2023-09-19T01:31:44;8.30;;;2.72;;
51618;SDS011;38518;53.164;5.430;2023-09-19T01:34:12;7.95;;;2.28;;
51618;SDS011;38518;53.164;5.430;2023-09-19T01:36:37;10.20;;;2.80;;
51618;SDS011;38518;53.164;5.430;2023-09-19T01:39:04;11.70;;;2.63;;
51618;SDS011;38518;53.164;5.430;2023-09-19T01:41:54;11.57;;;2.38;;
51618;SDS011;38518;53.164;5.430;2023-09-19T01:44:40;12.05;;;2.63;;
51618;SDS011;38518;53.164;5.430;2023-09-19T01:48:03;8.43;;;2.50;;
51618;SDS011;38518;53.164;5.430;2023-09-19T01:50:17;8.05;;;2.10;;
51618;SDS011;38518;53.164;5.430;2023-09-19T01:53:06;7.18;;;2.38;;
51618;SDS011;38518;53.164;5.430;2023-09-19T01:55:45;12.00;;;2.70;;
51618;SDS011;38518;53.164;5.430;2023-09-19T02:00:48;8.85;;;3.30;;
51618;SDS011;38518;53.164;5.430;2023-09-19T02:03:17;10.02;;;2.90;;
51618;SDS011;38518;53.164;5.430;2023-09-19T02:05:50;12.55;;;3.03;;
51618;SDS011;38518;53.164;5.430;2023-09-19T02:08:19;13.18;;;3.55;;
51618;SDS011;38518;53.164;5.430;2023-09-19T02:10:45;11.07;;;2.75;;
51618;SDS011;38518;53.164;5.430;2023-09-19T02:13:17;10.63;;;2.72;;
51618;SDS011;38518;53.164;5.430;2023-09-19T02:15:44;7.15;;;2.85;;
51618;SDS011;38518;53.164;5.430;2023-09-19T02:18:11;8.57;;;2.60;;
51618;SDS011;38518;53.164;5.430;2023-09-19T02:20:39;6.45;;;2.33;;
51618;SDS011;38518;53.164;5.430;2023-09-19T02:23:06;11.02;;;2.88;;
51618;SDS011;38518;53.164;5.430;2023-09-19T02:25:33;8.98;;;2.50;;
51618;SDS011;38518;53.164;5.430;2023-09-19T02:28:00;10.38;;;2.65;;
51618;SDS011;38518;53.164;5.430;2023-09-19T02:30:29;9.13;;;2.00;;
51618;SDS011;38518;53.164;5.430;2023-09-19T02:32:54;6.25;;;1.95;;
51618;SDS011;38518;53.164;5.430;2023-09-19T02:35:20;13.00;;;2.45;;
51618;SDS011;38518;53.164;5.430;2023-09-19T02:37:47;8.27;;;2.17;;
51618;SDS011;38518;53.164;5.430;2023-09-19T02:40:13;7.40;;;2.00;;
51618;SDS011;38518;53.164;5.430;2023-09-19T02:42:48;8.45;;;2.45;;
51618;SDS011;38518;53.164;5.430;2023-09-19T02:45:17;12.45;;;2.95;;
51618;SDS011;38518;53.164;5.430;2023-09-19T02:47:44;10.63;;;2.50;;
51618;SDS011;38518;53.164;5.430;2023-09-19T02:50:11;11.73;;;2.50;;
51618;SDS011;38518;53.164;5.430;2023-09-19T02:52:37;10.77;;;2.75;;
51618;SDS011;38518;53.164;5.430;2023-09-19T02:55:03;11.13;;;2.65;;
51618;SDS011;38518;53.164;5.430;2023-09-19T02:57:31;11.32;;;2.88;;
51618;SDS011;38518;53.164;5.430;2023-09-19T02:59:58;8.13;;;2.38;;
51618;SDS011;38518;53.164;5.430;2023-09-19T03:02:25;9.07;;;2.58;;
51618;SDS011;38518;53.164;5.430;2023-09-19T03:04:53;6.75;;;2.30;;
51618;SDS011;38518;53.164;5.430;2023-09-19T03:07:19;9.98;;;2.40;;
51618;SDS011;38518;53.164;5.430;2023-09-19T03:09:44;11.25;;;2.97;;
51618;SDS011;38518;53.164;5.430;2023-09-19T03:12:10;10.50;;;2.95;;
51618;SDS011;38518;53.164;5.430;2023-09-19T03:14:36;9.02;;;3.10;;
51618;SDS011;38518;53.164;5.430;2023-09-19T03:17:02;11.20;;;2.65;;
51618;SDS011;38518;53.164;5.430;2023-09-19T03:19:30;10.18;;;3.00;;
51618;SDS011;38518;53.164;5.430;2023-09-19T03:21:58;7.78;;;2.67;;
51618;SDS011;38518;53.164;5.430;2023-09-19T03:24:24;10.95;;;2.78;;
51618;SDS011;38518;53.164;5.430;2023-09-19T03:26:51;12.60;;;2.70;;
51618;SDS011;38518;53.164;5.430;2023-09-19T03:29:17;9.60;;;3.40;;
51618;SDS011;38518;53.164;5.430;2023-09-19T03:31:43;11.10;;;2.97;;
51618;SDS011;38518;53.164;5.430;2023-09-19T03:34:09;11.40;;;2.58;;
51618;SDS011;38518;53.164;5.430;2023-09-19T03:36:35;10.80;;;2.60;;
51618;SDS011;38518;53.164;5.430;2023-09-19T03:39:01;9.63;;;3.00;;
51618;SDS011;38518;53.164;5.430;2023-09-19T03:41:30;11.45;;;2.72;;
51618;SDS011;38518;53.164;5.430;2023-09-19T03:43:56;11.32;;;2.67;;
51618;SDS011;38518;53.164;5.430;2023-09-19T03:46:22;12.07;;;2.72;;
51618;SDS011;38518;53.164;5.430;2023-09-19T03:48:48;11.38;;;3.03;;
51618;SDS011;38518;53.164;5.430;2023-09-19T03:51:14;8.65;;;3.00;;
51618;SDS011;38518;53.164;5.430;2023-09-19T03:53:39;11.10;;;3.05;;
51618;SDS011;38518;53.164;5.430;2023-09-19T03:56:05;7.50;;;2.50;;
51618;SDS011;38518;53.164;5.430;2023-09-19T03:58:31;10.32;;;3.00;;
51618;SDS011;38518;53.164;5.430;2023-09-19T04:00:59;9.45;;;3.08;;
51618;SDS011;38518;53.164;5.430;2023-09-19T04:03:25;11.40;;;3.33;;
51618;SDS011;38518;53.164;5.430;2023-09-19T04:05:59;10.65;;;2.80;;
51618;SDS011;38518;53.164;5.430;2023-09-19T04:08:26;9.00;;;2.63;;
51618;SDS011;38518;53.164;5.430;2023-09-19T04:10:51;11.00;;;3.10;;
51618;SDS011;38518;53.164;5.430;2023-09-19T04:13:18;12.02;;;3.38;;
51618;SDS011;38518;53.164;5.430;2023-09-19T04:15:43;10.43;;;3.10;;
51618;SDS011;38518;53.164;5.430;2023-09-19T04:18:11;12.93;;;3.03;;
51618;SDS011;38518;53.164;5.430;2023-09-19T04:20:37;11.77;;;3.00;;
51618;SDS011;38518;53.164;5.430;2023-09-19T04:23:02;11.40;;;3.20;;
51618;SDS011;38518;53.164;5.430;2023-09-19T04:25:30;12.20;;;3.30;;
51618;SDS011;38518;53.164;5.430;2023-09-19T04:27:56;11.23;;;3.67;;
51618;SDS011;38518;53.164;5.430;2023-09-19T04:30:23;11.52;;;3.53;;
51618;SDS011;38518;53.164;5.430;2023-09-19T04:32:49;12.02;;;3.60;;
51618;SDS011;38518;53.164;5.430;2023-09-19T04:35:15;9.77;;;3.00;;
51618;SDS011;38518;53.164;5.430;2023-09-19T04:37:41;11.30;;;3.05;;
51618;SDS011;38518;53.164;5.430;2023-09-19T04:40:08;8.77;;;2.70;;
51618;SDS011;38518;53.164;5.430;2023-09-19T04:42:39;10.15;;;3.33;;
51618;SDS011;38518;53.164;5.430;2023-09-19T04:45:07;10.85;;;2.90;;
51618;SDS011;38518;53.164;5.430;2023-09-19T04:47:35;11.73;;;3.25;;
51618;SDS011;38518;53.164;5.430;2023-09-19T04:50:07;13.10;;;3.53;;
51618;SDS011;38518;53.164;5.430;2023-09-19T04:52:38;7.38;;;2.67;;
51618;SDS011;38518;53.164;5.430;2023-09-19T04:55:08;9.77;;;2.50;;
51618;SDS011;38518;53.164;5.430;2023-09-19T04:57:45;10.68;;;2.53;;
51618;SDS011;38518;53.164;5.430;2023-09-19T05:00:16;10.55;;;3.60;;
51618;SDS011;38518;53.164;5.430;2023-09-19T05:02:44;7.85;;;2.55;;
51618;SDS011;38518;53.164;5.430;2023-09-19T05:05:11;9.65;;;2.78;;
51618;SDS011;38518;53.164;5.430;2023-09-19T05:07:41;10.32;;;3.05;;
51618;SDS011;38518;53.164;5.430;2023-09-19T05:10:07;9.98;;;2.75;;
51618;SDS011;38518;53.164;5.430;2023-09-19T05:12:34;12.82;;;2.95;;
51618;SDS011;38518;53.164;5.430;2023-09-19T05:15:01;10.60;;;3.13;;
51618;SDS011;38518;53.164;5.430;2023-09-19T05:17:28;9.88;;;3.00;;
51618;SDS011;38518;53.164;5.430;2023-09-19T05:19:54;13.05;;;2.72;;
51618;SDS011;38518;53.164;5.430;2023-09-19T05:22:20;9.23;;;3.22;;
51618;SDS011;38518;53.164;5.430;2023-09-19T05:24:46;11.30;;;3.25;;
51618;SDS011;38518;53.164;5.430;2023-09-19T05:27:14;11.70;;;3.00;;
51618;SDS011;38518;53.164;5.430;2023-09-19T05:29:42;12.25;;;2.83;;
51618;SDS011;38518;53.164;5.430;2023-09-19T05:32:09;8.27;;;2.35;;
51618;SDS011;38518;53.164;5.430;2023-09-19T05:34:36;9.73;;;2.58;;
51618;SDS011;38518;53.164;5.430;2023-09-19T05:37:03;9.82;;;3.65;;
51618;SDS011;38518;53.164;5.430;2023-09-19T05:39:32;11.57;;;2.72;;
51618;SDS011;38518;53.164;5.430;2023-09-19T05:41:58;16.92;;;3.50;;
51618;SDS011;38518;53.164;5.430;2023-09-19T05:44:25;15.70;;;3.30;;
51618;SDS011;38518;53.164;5.430;2023-09-19T05:46:51;10.73;;;2.78;;
51618;SDS011;38518;53.164;5.430;2023-09-19T05:49:17;15.73;;;3.45;;
51618;SDS011;38518;53.164;5.430;2023-09-19T05:51:43;12.77;;;3.58;;
51618;SDS011;38518;53.164;5.430;2023-09-19T05:54:09;13.45;;;3.25;;
51618;SDS011;38518;53.164;5.430;2023-09-19T05:56:36;10.20;;;2.80;;
51618;SDS011;38518;53.164;5.430;2023-09-19T05:59:02;10.40;;;3.17;;
51618;SDS011;38518;53.164;5.430;2023-09-19T06:01:29;11.10;;;2.70;;
51618;SDS011;38518;53.164;5.430;2023-09-19T06:03:57;12.23;;;3.53;;
51618;SDS011;38518;53.164;5.430;2023-09-19T06:06:25;13.55;;;3.20;;
51618;SDS011;38518;53.164;5.430;2023-09-19T06:08:51;13.00;;;3.45;;
51618;SDS011;38518;53.164;5.430;2023-09-19T06:11:17;8.88;;;3.03;;
51618;SDS011;38518;53.164;5.430;2023-09-19T06:13:45;8.30;;;3.03;;
51618;SDS011;38518;53.164;5.430;2023-09-19T06:16:12;13.60;;;3.20;;
51618;SDS011;38518;53.164;5.430;2023-09-19T06:18:38;12.27;;;3.22;;
51618;SDS011;38518;53.164;5.430;2023-09-19T06:21:04;9.27;;;2.80;;
51618;SDS011;38518;53.164;5.430;2023-09-19T06:23:33;11.45;;;3.03;;
51618;SDS011;38518;53.164;5.430;2023-09-19T06:26:00;11.43;;;2.92;;
51618;SDS011;38518;53.164;5.430;2023-09-19T06:28:26;14.93;;;3.72;;
51618;SDS011;38518;53.164;5.430;2023-09-19T06:30:54;13.13;;;3.15;;
51618;SDS011;38518;53.164;5.430;2023-09-19T06:33:20;7.90;;;2.65;;
51618;SDS011;38518;53.164;5.430;2023-09-19T06:35:46;12.15;;;3.30;;
51618;SDS011;38518;53.164;5.430;2023-09-19T06:38:13;12.23;;;3.10;;
51618;SDS011;38518;53.164;5.430;2023-09-19T06:40:40;10.32;;;3.08;;
51618;SDS011;38518;53.164;5.430;2023-09-19T06:43:09;11.85;;;3.38;;
51618;SDS011;38518;53.164;5.430;2023-09-19T06:45:36;11.80;;;2.78;;
51618;SDS011;38518;53.164;5.430;2023-09-19T06:48:01;12.45;;;3.63;;
51618;SDS011;38518;53.164;5.430;2023-09-19T06:50:28;11.00;;;3.03;;
51618;SDS011;38518;53.164;5.430;2023-09-19T06:52:56;14.90;;;4.22;;
51618;SDS011;38518;53.164;5.430;2023-09-19T06:55:24;12.95;;;3.35;;
51618;SDS011;38518;53.164;5.430;2023-09-19T06:57:53;11.38;;;2.90;;
51618;SDS011;38518;53.164;5.430;2023-09-19T07:00:19;16.00;;;3.70;;
51618;SDS011;38518;53.164;5.430;2023-09-19T07:02:56;15.85;;;3.38;;
51618;SDS011;38518;53.164;5.430;2023-09-19T07:05:31;10.95;;;3.50;;
51618;SDS011;38518;53.164;5.430;2023-09-19T07:07:59;13.07;;;3.00;;
51618;SDS011;38518;53.164;5.430;2023-09-19T07:10:25;10.52;;;3.38;;
51618;SDS011;38518;53.164;5.430;2023-09-19T07:15:24;11.88;;;3.30;;
51618;SDS011;38518;53.164;5.430;2023-09-19T07:17:51;11.68;;;3.33;;
51618;SDS011;38518;53.164;5.430;2023-09-19T07:20:19;14.80;;;3.38;;
51618;SDS011;38518;53.164;5.430;2023-09-19T07:22:45;10.90;;;2.65;;
51618;SDS011;38518;53.164;5.430;2023-09-19T07:25:11;8.50;;;2.65;;
51618;SDS011;38518;53.164;5.430;2023-09-19T07:27:39;10.27;;;3.08;;
51618;SDS011;38518;53.164;5.430;2023-09-19T07:30:09;7.97;;;3.03;;
51618;SDS011;38518;53.164;5.430;2023-09-19T07:32:37;11.95;;;2.75;;
51618;SDS011;38518;53.164;5.430;2023-09-19T07:35:03;14.48;;;3.00;;
51618;SDS011;38518;53.164;5.430;2023-09-19T07:37:31;10.23;;;2.70;;
51618;SDS011;38518;53.164;5.430;2023-09-19T07:39:58;11.73;;;3.05;;
51618;SDS011;38518;53.164;5.430;2023-09-19T07:42:26;7.43;;;2.67;;
51618;SDS011;38518;53.164;5.430;2023-09-19T07:44:52;11.23;;;2.97;;
51618;SDS011;38518;53.164;5.430;2023-09-19T07:47:19;11.00;;;2.90;;
51618;SDS011;38518;53.164;5.430;2023-09-19T07:49:46;11.70;;;3.38;;
51618;SDS011;38518;53.164;5.430;2023-09-19T07:52:13;11.73;;;3.35;;
51618;SDS011;38518;53.164;5.430;2023-09-19T07:54:39;9.65;;;3.15;;
51618;SDS011;38518;53.164;5.430;2023-09-19T07:57:10;11.25;;;3.80;;
51618;SDS011;38518;53.164;5.430;2023-09-19T07:59:37;12.02;;;3.30;;
51618;SDS011;38518;53.164;5.430;2023-09-19T08:02:04;10.70;;;3.00;;
51618;SDS011;38518;53.164;5.430;2023-09-19T08:04:30;15.45;;;3.63;;
51618;SDS011;38518;53.164;5.430;2023-09-19T08:06:58;11.55;;;3.00;;
51618;SDS011;38518;53.164;5.430;2023-09-19T08:09:25;17.20;;;3.92;;
51618;SDS011;38518;53.164;5.430;2023-09-19T08:11:52;13.25;;;3.35;;
51618;SDS011;38518;53.164;5.430;2023-09-19T08:14:18;16.63;;;4.00;;
51618;SDS011;38518;53.164;5.430;2023-09-19T08:16:44;11.90;;;3.50;;
51618;SDS011;38518;53.164;5.430;2023-09-19T08:19:10;11.77;;;3.22;;
51618;SDS011;38518;53.164;5.430;2023-09-19T08:21:36;17.35;;;4.05;;
51618;SDS011;38518;53.164;5.430;2023-09-19T08:24:02;9.02;;;2.72;;
51618;SDS011;38518;53.164;5.430;2023-09-19T08:26:29;10.93;;;3.13;;
51618;SDS011;38518;53.164;5.430;2023-09-19T08:28:56;11.90;;;3.20;;
51618;SDS011;38518;53.164;5.430;2023-09-19T08:31:22;12.55;;;3.47;;
51618;SDS011;38518;53.164;5.430;2023-09-19T08:33:49;12.15;;;3.58;;
51618;SDS011;38518;53.164;5.430;2023-09-19T08:36:16;12.32;;;3.72;;
51618;SDS011;38518;53.164;5.430;2023-09-19T08:38:42;13.57;;;3.20;;
51618;SDS011;38518;53.164;5.430;2023-09-19T08:41:08;8.68;;;3.05;;
51618;SDS011;38518;53.164;5.430;2023-09-19T08:43:34;12.68;;;3.80;;
51618;SDS011;38518;53.164;5.430;2023-09-19T08:46:10;10.30;;;2.90;;
51618;SDS011;38518;53.164;5.430;2023-09-19T08:48:41;13.10;;;3.47;;
51618;SDS011;38518;53.164;5.430;2023-09-19T08:51:26;11.07;;;3.22;;
51618;SDS011;38518;53.164;5.430;2023-09-19T08:53:58;10.55;;;2.97;;
51618;SDS011;38518;53.164;5.430;2023-09-19T08:56:34;9.18;;;3.05;;
51618;SDS011;38518;53.164;5.430;2023-09-19T08:59:04;12.63;;;3.20;;
51618;SDS011;38518;53.164;5.430;2023-09-19T09:01:34;13.27;;;3.55;;
51618;SDS011;38518;53.164;5.430;2023-09-19T09:04:01;14.13;;;4.15;;
51618;SDS011;38518;53.164;5.430;2023-09-19T09:06:28;11.23;;;3.25;;
51618;SDS011;38518;53.164;5.430;2023-09-19T09:08:54;13.82;;;3.55;;
51618;SDS011;38518;53.164;5.430;2023-09-19T09:11:21;14.02;;;3.67;;
51618;SDS011;38518;53.164;5.430;2023-09-19T09:13:50;13.23;;;3.15;;
51618;SDS011;38518;53.164;5.430;2023-09-19T09:16:15;9.20;;;3.10;;
51618;SDS011;38518;53.164;5.430;2023-09-19T09:18:44;11.55;;;3.65;;
51618;SDS011;38518;53.164;5.430;2023-09-19T09:21:11;13.45;;;3.35;;
51618;SDS011;38518;53.164;5.430;2023-09-19T09:23:38;14.93;;;3.47;;
51618;SDS011;38518;53.164;5.430;2023-09-19T09:26:04;10.93;;;3.25;;
51618;SDS011;38518;53.164;5.430;2023-09-19T09:28:34;10.02;;;3.70;;
51618;SDS011;38518;53.164;5.430;2023-09-19T09:31:01;11.25;;;3.50;;
51618;SDS011;38518;53.164;5.430;2023-09-19T09:33:34;11.18;;;3.40;;
51618;SDS011;38518;53.164;5.430;2023-09-19T09:36:03;12.57;;;4.15;;
51618;SDS011;38518;53.164;5.430;2023-09-19T09:38:44;14.55;;;3.67;;
51618;SDS011;38518;53.164;5.430;2023-09-19T09:41:13;12.32;;;3.50;;
51618;SDS011;38518;53.164;5.430;2023-09-19T09:43:52;11.68;;;4.38;;
51618;SDS011;38518;53.164;5.430;2023-09-19T09:46:19;10.60;;;3.45;;
51618;SDS011;38518;53.164;5.430;2023-09-19T09:51:44;11.88;;;3.33;;
51618;SDS011;38518;53.164;5.430;2023-09-19T09:54:22;11.00;;;3.70;;
51618;SDS011;38518;53.164;5.430;2023-09-19T09:56:56;12.18;;;3.45;;
51618;SDS011;38518;53.164;5.430;2023-09-19T10:02:27;13.02;;;3.83;;
51618;SDS011;38518;53.164;5.430;2023-09-19T10:04:57;12.70;;;3.80;;
51618;SDS011;38518;53.164;5.430;2023-09-19T10:07:32;10.25;;;2.70;;
51618;SDS011;38518;53.164;5.430;2023-09-19T10:10:04;11.77;;;2.92;;
51618;SDS011;38518;53.164;5.430;2023-09-19T10:12:47;17.00;;;4.15;;
51618;SDS011;38518;53.164;5.430;2023-09-19T10:15:17;15.98;;;4.05;;
51618;SDS011;38518;53.164;5.430;2023-09-19T10:17:49;11.55;;;3.40;;
51618;SDS011;38518;53.164;5.430;2023-09-19T10:20:23;10.75;;;3.53;;
51618;SDS011;38518;53.164;5.430;2023-09-19T10:23:08;12.93;;;3.53;;
51618;SDS011;38518;53.164;5.430;2023-09-19T10:25:40;9.65;;;3.40;;
51618;SDS011;38518;53.164;5.430;2023-09-19T10:28:13;18.27;;;4.15;;
51618;SDS011;38518;53.164;5.430;2023-09-19T10:30:41;14.20;;;3.58;;
51618;SDS011;38518;53.164;5.430;2023-09-19T10:33:19;13.43;;;2.92;;
51618;SDS011;38518;53.164;5.430;2023-09-19T10:35:50;12.98;;;3.75;;
51618;SDS011;38518;53.164;5.430;2023-09-19T10:38:23;11.65;;;3.35;;
51618;SDS011;38518;53.164;5.430;2023-09-19T10:40:52;13.02;;;3.70;;
51618;SDS011;38518;53.164;5.430;2023-09-19T10:43:20;10.55;;;3.30;;
51618;SDS011;38518;53.164;5.430;2023-09-19T10:45:50;16.55;;;4.10;;
51618;SDS011;38518;53.164;5.430;2023-09-19T10:48:17;15.15;;;4.22;;
51618;SDS011;38518;53.164;5.430;2023-09-19T10:51:05;12.50;;;3.28;;
51618;SDS011;38518;53.164;5.430;2023-09-19T10:54:01;15.60;;;3.58;;
51618;SDS011;38518;53.164;5.430;2023-09-19T10:56:37;10.82;;;3.40;;
51618;SDS011;38518;53.164;5.430;2023-09-19T10:59:14;12.20;;;3.88;;
51618;SDS011;38518;53.164;5.430;2023-09-19T11:04:22;10.35;;;3.60;;
51618;SDS011;38518;53.164;5.430;2023-09-19T11:09:54;11.82;;;3.58;;
51618;SDS011;38518;53.164;5.430;2023-09-19T11:19:04;12.10;;;3.70;;
51618;SDS011;38518;53.164;5.430;2023-09-19T11:26:42;15.40;;;4.45;;
51618;SDS011;38518;53.164;5.430;2023-09-19T11:31:51;16.63;;;5.10;;
51618;SDS011;38518;53.164;5.430;2023-09-19T11:34:42;12.70;;;4.50;;
51618;SDS011;38518;53.164;5.430;2023-09-19T11:48:37;14.65;;;4.28;;
51618;SDS011;38518;53.164;5.430;2023-09-19T11:51:12;11.18;;;3.78;;
51618;SDS011;38518;53.164;5.430;2023-09-19T11:53:45;9.32;;;3.70;;
51618;SDS011;38518;53.164;5.430;2023-09-19T11:56:19;12.63;;;3.83;;
51618;SDS011;38518;53.164;5.430;2023-09-19T11:58:53;11.40;;;4.03;;
51618;SDS011;38518;53.164;5.430;2023-09-19T12:01:49;10.10;;;3.95;;
51618;SDS011;38518;53.164;5.430;2023-09-19T12:04:15;12.27;;;3.88;;
51618;SDS011;38518;53.164;5.430;2023-09-19T12:06:43;14.18;;;3.95;;
51618;SDS011;38518;53.164;5.430;2023-09-19T12:09:22;12.25;;;3.63;;
51618;SDS011;38518;53.164;5.430;2023-09-19T12:11:50;8.98;;;3.17;;
51618;SDS011;38518;53.164;5.430;2023-09-19T12:14:23;10.70;;;3.35;;
51618;SDS011;38518;53.164;5.430;2023-09-19T12:16:56;11.65;;;3.88;;
51618;SDS011;38518;53.164;5.430;2023-09-19T12:19:23;11.43;;;3.78;;
51618;SDS011;38518;53.164;5.430;2023-09-19T12:22:00;10.38;;;3.20;;
51618;SDS011;38518;53.164;5.430;2023-09-19T12:24:34;8.98;;;3.45;;
51618;SDS011;38518;53.164;5.430;2023-09-19T12:27:06;11.07;;;3.80;;
51618;SDS011;38518;53.164;5.430;2023-09-19T12:29:46;9.95;;;3.70;;
51618;SDS011;38518;53.164;5.430;2023-09-19T12:32:33;8.55;;;3.22;;
51618;SDS011;38518;53.164;5.430;2023-09-19T12:37:45;11.77;;;3.55;;
51618;SDS011;38518;53.164;5.430;2023-09-19T12:40:18;14.55;;;4.82;;
51618;SDS011;38518;53.164;5.430;2023-09-19T12:42:56;10.38;;;3.75;;
51618;SDS011;38518;53.164;5.430;2023-09-19T12:45:27;11.60;;;3.80;;
51618;SDS011;38518;53.164;5.430;2023-09-19T12:50:59;15.10;;;4.40;;
51618;SDS011;38518;53.164;5.430;2023-09-19T12:53:37;12.52;;;4.53;;
51618;SDS011;38518;53.164;5.430;2023-09-19T12:56:16;18.58;;;5.22;;
51618;SDS011;38518;53.164;5.430;2023-09-19T12:58:53;14.95;;;4.85;;
51618;SDS011;38518;53.164;5.430;2023-09-19T13:01:20;15.38;;;4.90;;
51618;SDS011;38518;53.164;5.430;2023-09-19T13:04:12;15.32;;;4.90;;
51618;SDS011;38518;53.164;5.430;2023-09-19T13:06:43;13.32;;;4.15;;
51618;SDS011;38518;53.164;5.430;2023-09-19T13:09:14;12.90;;;4.15;;
51618;SDS011;38518;53.164;5.430;2023-09-19T13:11:41;12.65;;;4.65;;
51618;SDS011;38518;53.164;5.430;2023-09-19T13:14:13;16.92;;;5.78;;
51618;SDS011;38518;53.164;5.430;2023-09-19T13:16:52;14.45;;;4.18;;
51618;SDS011;38518;53.164;5.430;2023-09-19T13:25:12;17.67;;;5.70;;
51618;SDS011;38518;53.164;5.430;2023-09-19T13:27:44;22.05;;;5.32;;
51618;SDS011;38518;53.164;5.430;2023-09-19T13:30:16;19.38;;;4.88;;
51618;SDS011;38518;53.164;5.430;2023-09-19T13:32:46;16.88;;;4.93;;
51618;SDS011;38518;53.164;5.430;2023-09-19T13:35:13;13.25;;;4.57;;
51618;SDS011;38518;53.164;5.430;2023-09-19T13:37:39;23.65;;;5.40;;
51618;SDS011;38518;53.164;5.430;2023-09-19T13:40:11;16.70;;;4.93;;
51618;SDS011;38518;53.164;5.430;2023-09-19T13:42:39;14.90;;;4.75;;
51618;SDS011;38518;53.164;5.430;2023-09-19T13:45:06;18.27;;;5.45;;
51618;SDS011;38518;53.164;5.430;2023-09-19T13:47:33;21.98;;;6.00;;
51618;SDS011;38518;53.164;5.430;2023-09-19T13:49:59;20.25;;;5.85;;
51618;SDS011;38518;53.164;5.430;2023-09-19T13:52:26;22.33;;;7.20;;
51618;SDS011;38518;53.164;5.430;2023-09-19T13:54:55;28.75;;;7.18;;
51618;SDS011;38518;53.164;5.430;2023-09-19T13:57:25;25.55;;;5.88;;
51618;SDS011;38518;53.164;5.430;2023-09-19T13:59:51;27.75;;;6.68;;
51618;SDS011;38518;53.164;5.430;2023-09-19T14:02:19;24.98;;;6.00;;
51618;SDS011;38518;53.164;5.430;2023-09-19T14:04:51;29.83;;;7.68;;
51618;SDS011;38518;53.164;5.430;2023-09-19T14:07:17;21.83;;;6.68;;
51618;SDS011;38518;53.164;5.430;2023-09-19T14:09:45;24.15;;;6.07;;
51618;SDS011;38518;53.164;5.430;2023-09-19T14:12:11;33.83;;;8.27;;
51618;SDS011;38518;53.164;5.430;2023-09-19T14:14:37;24.52;;;6.28;;
51618;SDS011;38518;53.164;5.430;2023-09-19T14:17:03;23.13;;;6.47;;
51618;SDS011;38518;53.164;5.430;2023-09-19T14:19:30;23.10;;;7.03;;
51618;SDS011;38518;53.164;5.430;2023-09-19T14:21:56;29.90;;;7.55;;
51618;SDS011;38518;53.164;5.430;2023-09-19T14:24:22;22.50;;;6.55;;
51618;SDS011;38518;53.164;5.430;2023-09-19T14:26:48;32.47;;;7.00;;
51618;SDS011;38518;53.164;5.430;2023-09-19T14:29:14;24.42;;;6.32;;
51618;SDS011;38518;53.164;5.430;2023-09-19T14:31:41;31.67;;;7.47;;
51618;SDS011;38518;53.164;5.430;2023-09-19T14:34:19;19.23;;;5.40;;
51618;SDS011;38518;53.164;5.430;2023-09-19T14:36:45;30.60;;;7.85;;
51618;SDS011;38518;53.164;5.430;2023-09-19T14:39:11;26.70;;;5.90;;
51618;SDS011;38518;53.164;5.430;2023-09-19T14:41:37;33.67;;;7.53;;
51618;SDS011;38518;53.164;5.430;2023-09-19T14:44:03;30.70;;;7.03;;
51618;SDS011;38518;53.164;5.430;2023-09-19T14:46:30;21.90;;;7.35;;
51618;SDS011;38518;53.164;5.430;2023-09-19T14:48:56;29.50;;;7.85;;
51618;SDS011;38518;53.164;5.430;2023-09-19T14:51:28;23.63;;;6.82;;
51618;SDS011;38518;53.164;5.430;2023-09-19T14:53:55;22.92;;;7.28;;
51618;SDS011;38518;53.164;5.430;2023-09-19T14:56:22;23.95;;;6.63;;
51618;SDS011;38518;53.164;5.430;2023-09-19T14:58:49;35.50;;;8.02;;
51618;SDS011;38518;53.164;5.430;2023-09-19T15:01:15;26.15;;;7.60;;
51618;SDS011;38518;53.164;5.430;2023-09-19T15:03:41;20.83;;;6.43;;
51618;SDS011;38518;53.164;5.430;2023-09-19T15:06:10;32.63;;;7.90;;
51618;SDS011;38518;53.164;5.430;2023-09-19T15:08:39;26.70;;;7.00;;
51618;SDS011;38518;53.164;5.430;2023-09-19T15:11:11;22.85;;;6.90;;
51618;SDS011;38518;53.164;5.430;2023-09-19T15:13:37;33.20;;;8.82;;
51618;SDS011;38518;53.164;5.430;2023-09-19T15:16:04;28.92;;;7.97;;
51618;SDS011;38518;53.164;5.430;2023-09-19T15:18:34;30.48;;;8.00;;
51618;SDS011;38518;53.164;5.430;2023-09-19T15:21:06;39.17;;;8.48;;
51618;SDS011;38518;53.164;5.430;2023-09-19T15:23:33;28.02;;;8.48;;
51618;SDS011;38518;53.164;5.430;2023-09-19T15:26:02;35.03;;;8.65;;
51618;SDS011;38518;53.164;5.430;2023-09-19T15:28:29;33.05;;;8.27;;
51618;SDS011;38518;53.164;5.430;2023-09-19T15:31:05;30.42;;;8.10;;
51618;SDS011;38518;53.164;5.430;2023-09-19T15:33:35;24.35;;;7.47;;
51618;SDS011;38518;53.164;5.430;2023-09-19T15:36:05;29.45;;;7.97;;
51618;SDS011;38518;53.164;5.430;2023-09-19T15:41:24;28.92;;;7.00;;
51618;SDS011;38518;53.164;5.430;2023-09-19T15:43:51;31.08;;;7.97;;
51618;SDS011;38518;53.164;5.430;2023-09-19T15:46:17;37.53;;;9.68;;
51618;SDS011;38518;53.164;5.430;2023-09-19T15:48:43;24.70;;;8.07;;
51618;SDS011;38518;53.164;5.430;2023-09-19T15:51:09;36.70;;;8.35;;
51618;SDS011;38518;53.164;5.430;2023-09-19T15:53:46;33.05;;;8.30;;
51618;SDS011;38518;53.164;5.430;2023-09-19T15:56:14;32.97;;;7.80;;
51618;SDS011;38518;53.164;5.430;2023-09-19T15:58:44;28.85;;;7.47;;